Aeroporto :
LOGIN :

Iscrizione | Disclaimer

   EN    FR    IT 

 










Sommario :    VFR   VFR Marginale   IFR   IFR Intensivo   IFR Molto Intensivo
Visibilità : 
Base nubi : 
>= 8 km
>= 3000ft
5 / 8 km
1000 / 3000 ft
1500m / 5 km
500 / 1000 ft
800 / 1500m
200 / 500 ft
< 800m
< 200 ft
Simboli :   Temporali  Nebbia  Neve Forte  Precipitazioni Forti  Vento > 20 kt
SIGMETs :   Varie  Temporali  Ghiacco  Turbolenza  Onda orograficha  Ceneri Vulcaniche







- Altitudine del aeroporto : 16 ft
- Codice IATA : AAE


DABB - Annaba-Rabah Bitat

ULTIMO METAR :
  • 172130Z 21002KT CAVOK 08/07 Q1024

METARs OBSOLETI :
  • 172100Z 00000KT CAVOK 09/07 Q1024
  • 172030Z 01003KT CAVOK 11/08 Q1024
  • 172000Z 01004KT CAVOK 12/09 Q1024
  • 171930Z 36004KT CAVOK 12/10 Q1024
  • 171900Z 35006KT CAVOK 13/10 Q1024

TAF TAF DABB
Valido dal 17 a 18 ore il 18 a 18 ore UTC


171700Z 1718/1818 05008KT 9999 FEW030 SCT200
BECMG 1719/1721 18006KT
Nessun NOTAM noto per questo aeroporto.



MetMap, La meteo Aeronautica in un colpo d'occhio ! - Copyright ORBIFLY Dicembre 2007 - Disclaimer

ORBIFLY MET'MAP TEAM :

Programmazione e sviluppo : Alexandra Zaïnal
Concezione e sviluppo : Baudouin d'Aumeries
Co-Programmazione e sviluppo : Marc-Olivier Méhu
Supporto tecnico e logistico : Manuel Goepfert
Aiuto per la traduzione : Arnaldo La Scala

Contatto : metmap@orbifly.com




FONTI E CREDITI :

   NOAA